sensor_id;sensor_type;location;lat;lon;timestamp;temperature;humidity
13310;DHT22;6723;48.256;16.402;2023-05-29T00:01:33;16.20;82.50
13310;DHT22;6723;48.256;16.402;2023-05-29T00:04:01;16.20;82.60
13310;DHT22;6723;48.256;16.402;2023-05-29T00:06:27;16.20;82.70
13310;DHT22;6723;48.256;16.402;2023-05-29T00:08:53;16.20;82.90
13310;DHT22;6723;48.256;16.402;2023-05-29T00:11:18;16.10;83.00
13310;DHT22;6723;48.256;16.402;2023-05-29T00:13:45;16.10;82.70
13310;DHT22;6723;48.256;16.402;2023-05-29T00:16:11;16.10;83.10
13310;DHT22;6723;48.256;16.402;2023-05-29T00:18:38;16.10;83.40
13310;DHT22;6723;48.256;16.402;2023-05-29T00:21:11;16.00;83.50
13310;DHT22;6723;48.256;16.402;2023-05-29T00:23:38;16.00;83.80
13310;DHT22;6723;48.256;16.402;2023-05-29T00:26:04;16.00;83.80
13310;DHT22;6723;48.256;16.402;2023-05-29T00:28:30;15.90;83.90
13310;DHT22;6723;48.256;16.402;2023-05-29T00:30:55;15.90;84.10
13310;DHT22;6723;48.256;16.402;2023-05-29T00:33:21;15.80;84.00
13310;DHT22;6723;48.256;16.402;2023-05-29T00:35:47;15.80;84.20
13310;DHT22;6723;48.256;16.402;2023-05-29T00:38:13;15.80;84.30
13310;DHT22;6723;48.256;16.402;2023-05-29T00:40:42;15.80;84.50
13310;DHT22;6723;48.256;16.402;2023-05-29T00:43:08;15.80;84.10
13310;DHT22;6723;48.256;16.402;2023-05-29T00:45:33;15.70;84.60
13310;DHT22;6723;48.256;16.402;2023-05-29T00:48:03;15.80;84.40
13310;DHT22;6723;48.256;16.402;2023-05-29T00:50:30;15.70;84.90
13310;DHT22;6723;48.256;16.402;2023-05-29T00:52:56;15.60;84.60
13310;DHT22;6723;48.256;16.402;2023-05-29T00:55:22;15.70;85.10
13310;DHT22;6723;48.256;16.402;2023-05-29T00:57:49;15.60;85.10
13310;DHT22;6723;48.256;16.402;2023-05-29T01:00:16;15.60;85.10
13310;DHT22;6723;48.256;16.402;2023-05-29T01:02:43;15.60;85.10
13310;DHT22;6723;48.256;16.402;2023-05-29T01:05:13;15.50;85.10
13310;DHT22;6723;48.256;16.402;2023-05-29T01:07:41;15.50;85.40
13310;DHT22;6723;48.256;16.402;2023-05-29T01:10:08;15.40;85.60
13310;DHT22;6723;48.256;16.402;2023-05-29T01:12:49;15.40;86.00
13310;DHT22;6723;48.256;16.402;2023-05-29T01:15:23;15.30;86.00
13310;DHT22;6723;48.256;16.402;2023-05-29T01:18:14;15.30;86.00
13310;DHT22;6723;48.256;16.402;2023-05-29T01:21:04;15.30;86.10
13310;DHT22;6723;48.256;16.402;2023-05-29T01:29:15;15.20;86.90
13310;DHT22;6723;48.256;16.402;2023-05-29T01:31:44;15.10;87.00
13310;DHT22;6723;48.256;16.402;2023-05-29T01:34:11;15.10;87.20
13310;DHT22;6723;48.256;16.402;2023-05-29T01:36:37;15.10;87.40
13310;DHT22;6723;48.256;16.402;2023-05-29T01:39:03;15.10;87.60
13310;DHT22;6723;48.256;16.402;2023-05-29T01:41:30;15.00;87.60
13310;DHT22;6723;48.256;16.402;2023-05-29T01:43:58;15.00;87.80
13310;DHT22;6723;48.256;16.402;2023-05-29T01:46:25;15.00;88.20
13310;DHT22;6723;48.256;16.402;2023-05-29T01:48:51;14.90;88.50
13310;DHT22;6723;48.256;16.402;2023-05-29T01:51:18;14.90;88.90
13310;DHT22;6723;48.256;16.402;2023-05-29T01:53:44;14.90;89.30
13310;DHT22;6723;48.256;16.402;2023-05-29T01:56:10;14.80;89.30
13310;DHT22;6723;48.256;16.402;2023-05-29T01:58:38;14.80;89.60
13310;DHT22;6723;48.256;16.402;2023-05-29T02:01:05;14.80;89.80
13310;DHT22;6723;48.256;16.402;2023-05-29T02:03:32;14.70;89.80
13310;DHT22;6723;48.256;16.402;2023-05-29T02:05:59;14.70;89.80
13310;DHT22;6723;48.256;16.402;2023-05-29T02:08:26;14.70;90.00
13310;DHT22;6723;48.256;16.402;2023-05-29T02:10:52;14.80;90.10
13310;DHT22;6723;48.256;16.402;2023-05-29T02:13:18;14.70;90.10
13310;DHT22;6723;48.256;16.402;2023-05-29T02:15:44;14.70;90.30
13310;DHT22;6723;48.256;16.402;2023-05-29T02:18:12;14.70;90.10
13310;DHT22;6723;48.256;16.402;2023-05-29T02:20:39;14.60;90.00
13310;DHT22;6723;48.256;16.402;2023-05-29T02:23:05;14.60;90.00
13310;DHT22;6723;48.256;16.402;2023-05-29T02:25:31;14.60;90.00
13310;DHT22;6723;48.256;16.402;2023-05-29T02:27:56;14.60;90.10
13310;DHT22;6723;48.256;16.402;2023-05-29T02:30:22;14.60;90.30
13310;DHT22;6723;48.256;16.402;2023-05-29T02:32:48;14.50;90.30
13310;DHT22;6723;48.256;16.402;2023-05-29T02:35:14;14.50;90.30
13310;DHT22;6723;48.256;16.402;2023-05-29T02:37:41;14.50;90.50
13310;DHT22;6723;48.256;16.402;2023-05-29T02:40:07;14.50;90.50
13310;DHT22;6723;48.256;16.402;2023-05-29T02:42:36;14.40;90.60
13310;DHT22;6723;48.256;16.402;2023-05-29T02:45:02;14.40;90.70
13310;DHT22;6723;48.256;16.402;2023-05-29T02:47:28;14.30;90.80
13310;DHT22;6723;48.256;16.402;2023-05-29T02:49:54;14.30;91.00
13310;DHT22;6723;48.256;16.402;2023-05-29T02:52:20;14.20;91.10
13310;DHT22;6723;48.256;16.402;2023-05-29T02:54:45;14.20;91.40
13310;DHT22;6723;48.256;16.402;2023-05-29T02:57:12;14.10;91.60
13310;DHT22;6723;48.256;16.402;2023-05-29T02:59:38;14.10;91.70
13310;DHT22;6723;48.256;16.402;2023-05-29T03:02:03;14.10;92.00
13310;DHT22;6723;48.256;16.402;2023-05-29T03:04:29;14.00;92.10
13310;DHT22;6723;48.256;16.402;2023-05-29T03:06:55;14.00;92.20
13310;DHT22;6723;48.256;16.402;2023-05-29T03:09:21;13.90;92.40
13310;DHT22;6723;48.256;16.402;2023-05-29T03:11:47;13.90;92.60
13310;DHT22;6723;48.256;16.402;2023-05-29T03:14:16;13.90;92.70
13310;DHT22;6723;48.256;16.402;2023-05-29T03:16:44;13.90;92.80
13310;DHT22;6723;48.256;16.402;2023-05-29T03:19:09;13.90;92.80
13310;DHT22;6723;48.256;16.402;2023-05-29T03:21:35;13.90;92.80
13310;DHT22;6723;48.256;16.402;2023-05-29T03:24:02;13.90;93.00
13310;DHT22;6723;48.256;16.402;2023-05-29T03:26:31;13.90;93.00
13310;DHT22;6723;48.256;16.402;2023-05-29T03:28:56;13.90;92.90
13310;DHT22;6723;48.256;16.402;2023-05-29T03:31:22;13.90;93.00
13310;DHT22;6723;48.256;16.402;2023-05-29T03:33:48;13.90;93.00
13310;DHT22;6723;48.256;16.402;2023-05-29T03:36:14;14.00;93.10
13310;DHT22;6723;48.256;16.402;2023-05-29T03:38:43;14.00;93.20
13310;DHT22;6723;48.256;16.402;2023-05-29T03:41:10;14.00;93.20
13310;DHT22;6723;48.256;16.402;2023-05-29T03:43:36;14.10;93.30
13310;DHT22;6723;48.256;16.402;2023-05-29T03:46:02;14.10;93.30
13310;DHT22;6723;48.256;16.402;2023-05-29T03:48:27;14.10;93.30
13310;DHT22;6723;48.256;16.402;2023-05-29T03:50:53;14.10;93.20
13310;DHT22;6723;48.256;16.402;2023-05-29T03:53:19;14.20;93.40
13310;DHT22;6723;48.256;16.402;2023-05-29T03:55:45;14.20;93.50
13310;DHT22;6723;48.256;16.402;2023-05-29T03:58:11;14.20;93.50
13310;DHT22;6723;48.256;16.402;2023-05-29T04:00:38;14.10;93.70
13310;DHT22;6723;48.256;16.402;2023-05-29T04:03:05;14.20;93.90
13310;DHT22;6723;48.256;16.402;2023-05-29T04:05:32;14.20;93.90
13310;DHT22;6723;48.256;16.402;2023-05-29T04:07:57;14.20;93.90
13310;DHT22;6723;48.256;16.402;2023-05-29T04:10:23;14.20;93.80
13310;DHT22;6723;48.256;16.402;2023-05-29T04:12:50;14.20;93.90
13310;DHT22;6723;48.256;16.402;2023-05-29T04:15:16;14.20;93.80
13310;DHT22;6723;48.256;16.402;2023-05-29T04:17:42;14.20;93.90
13310;DHT22;6723;48.256;16.402;2023-05-29T04:20:08;14.20;94.00
13310;DHT22;6723;48.256;16.402;2023-05-29T04:22:38;14.30;94.10
13310;DHT22;6723;48.256;16.402;2023-05-29T04:25:04;14.30;94.20
13310;DHT22;6723;48.256;16.402;2023-05-29T04:27:31;14.30;94.20
13310;DHT22;6723;48.256;16.402;2023-05-29T04:30:07;14.30;94.10
13310;DHT22;6723;48.256;16.402;2023-05-29T04:32:34;14.30;94.20
13310;DHT22;6723;48.256;16.402;2023-05-29T04:35:01;14.40;94.40
13310;DHT22;6723;48.256;16.402;2023-05-29T04:37:31;14.40;94.50
13310;DHT22;6723;48.256;16.402;2023-05-29T04:40:07;14.60;94.60
13310;DHT22;6723;48.256;16.402;2023-05-29T04:42:46;14.60;94.70
13310;DHT22;6723;48.256;16.402;2023-05-29T04:45:11;14.70;94.60
13310;DHT22;6723;48.256;16.402;2023-05-29T04:47:37;14.70;94.40
13310;DHT22;6723;48.256;16.402;2023-05-29T04:50:10;14.80;94.20
13310;DHT22;6723;48.256;16.402;2023-05-29T04:52:37;14.80;94.10
13310;DHT22;6723;48.256;16.402;2023-05-29T04:55:04;14.90;93.90
13310;DHT22;6723;48.256;16.402;2023-05-29T04:57:30;14.90;93.50
13310;DHT22;6723;48.256;16.402;2023-05-29T04:59:56;15.00;93.30
13310;DHT22;6723;48.256;16.402;2023-05-29T05:02:22;15.10;93.20
13310;DHT22;6723;48.256;16.402;2023-05-29T05:04:48;15.20;93.10
13310;DHT22;6723;48.256;16.402;2023-05-29T05:07:13;15.40;93.00
13310;DHT22;6723;48.256;16.402;2023-05-29T05:09:42;15.50;92.70
13310;DHT22;6723;48.256;16.402;2023-05-29T05:12:08;15.60;92.40
13310;DHT22;6723;48.256;16.402;2023-05-29T05:14:34;15.80;92.40
13310;DHT22;6723;48.256;16.402;2023-05-29T05:17:00;15.90;92.10
13310;DHT22;6723;48.256;16.402;2023-05-29T05:19:26;16.00;91.90
13310;DHT22;6723;48.256;16.402;2023-05-29T05:21:51;16.10;91.40
13310;DHT22;6723;48.256;16.402;2023-05-29T05:24:17;16.10;91.10
13310;DHT22;6723;48.256;16.402;2023-05-29T05:26:43;16.20;91.00
13310;DHT22;6723;48.256;16.402;2023-05-29T05:29:09;16.40;91.00
13310;DHT22;6723;48.256;16.402;2023-05-29T05:31:34;16.50;90.70
13310;DHT22;6723;48.256;16.402;2023-05-29T05:34:00;16.70;90.30
13310;DHT22;6723;48.256;16.402;2023-05-29T05:36:26;16.70;90.20
13310;DHT22;6723;48.256;16.402;2023-05-29T05:38:52;16.70;90.00
13310;DHT22;6723;48.256;16.402;2023-05-29T05:41:17;16.70;90.00
13310;DHT22;6723;48.256;16.402;2023-05-29T05:43:43;16.80;89.60
13310;DHT22;6723;48.256;16.402;2023-05-29T05:46:09;16.80;89.60
13310;DHT22;6723;48.256;16.402;2023-05-29T05:48:35;17.00;89.10
13310;DHT22;6723;48.256;16.402;2023-05-29T05:51:00;17.10;88.40
13310;DHT22;6723;48.256;16.402;2023-05-29T05:53:26;17.30;88.60
13310;DHT22;6723;48.256;16.402;2023-05-29T05:55:52;17.50;88.10
13310;DHT22;6723;48.256;16.402;2023-05-29T05:58:17;17.60;87.10
13310;DHT22;6723;48.256;16.402;2023-05-29T06:00:43;17.60;86.70
13310;DHT22;6723;48.256;16.402;2023-05-29T06:03:09;17.80;86.80
13310;DHT22;6723;48.256;16.402;2023-05-29T06:05:54;17.90;85.50
13310;DHT22;6723;48.256;16.402;2023-05-29T06:08:20;17.80;85.50
13310;DHT22;6723;48.256;16.402;2023-05-29T06:10:46;18.10;85.80
13310;DHT22;6723;48.256;16.402;2023-05-29T06:13:11;18.00;85.20
13310;DHT22;6723;48.256;16.402;2023-05-29T06:15:37;18.10;85.40
13310;DHT22;6723;48.256;16.402;2023-05-29T06:18:05;18.20;85.60
13310;DHT22;6723;48.256;16.402;2023-05-29T06:20:31;18.50;84.80
13310;DHT22;6723;48.256;16.402;2023-05-29T06:22:57;18.60;84.70
13310;DHT22;6723;48.256;16.402;2023-05-29T06:25:23;18.60;84.40
13310;DHT22;6723;48.256;16.402;2023-05-29T06:28:01;18.50;83.90
13310;DHT22;6723;48.256;16.402;2023-05-29T06:30:40;18.40;85.20
13310;DHT22;6723;48.256;16.402;2023-05-29T06:33:06;18.50;84.80
13310;DHT22;6723;48.256;16.402;2023-05-29T06:35:31;18.70;84.10
13310;DHT22;6723;48.256;16.402;2023-05-29T06:37:57;18.70;83.80
13310;DHT22;6723;48.256;16.402;2023-05-29T06:40:23;18.80;83.80
13310;DHT22;6723;48.256;16.402;2023-05-29T06:42:48;18.90;83.90
13310;DHT22;6723;48.256;16.402;2023-05-29T06:45:15;19.00;82.50
13310;DHT22;6723;48.256;16.402;2023-05-29T06:47:47;18.80;82.30
13310;DHT22;6723;48.256;16.402;2023-05-29T06:50:14;19.10;82.80
13310;DHT22;6723;48.256;16.402;2023-05-29T06:52:40;19.20;82.30
13310;DHT22;6723;48.256;16.402;2023-05-29T06:55:06;19.20;81.30
13310;DHT22;6723;48.256;16.402;2023-05-29T06:58:09;19.10;81.50
13310;DHT22;6723;48.256;16.402;2023-05-29T07:00:35;19.50;81.50
13310;DHT22;6723;48.256;16.402;2023-05-29T07:03:06;19.50;81.10
13310;DHT22;6723;48.256;16.402;2023-05-29T07:05:44;19.70;80.10
13310;DHT22;6723;48.256;16.402;2023-05-29T07:08:10;19.80;80.20
13310;DHT22;6723;48.256;16.402;2023-05-29T07:10:36;20.10;79.60
13310;DHT22;6723;48.256;16.402;2023-05-29T07:13:01;20.30;79.70
13310;DHT22;6723;48.256;16.402;2023-05-29T07:15:27;20.20;78.30
13310;DHT22;6723;48.256;16.402;2023-05-29T07:17:53;20.60;78.70
13310;DHT22;6723;48.256;16.402;2023-05-29T07:20:19;20.70;77.50
13310;DHT22;6723;48.256;16.402;2023-05-29T07:22:46;21.00;77.80
13310;DHT22;6723;48.256;16.402;2023-05-29T07:25:12;21.50;76.60
13310;DHT22;6723;48.256;16.402;2023-05-29T07:27:38;21.40;75.50
13310;DHT22;6723;48.256;16.402;2023-05-29T07:30:04;22.00;76.30
13310;DHT22;6723;48.256;16.402;2023-05-29T07:32:31;22.00;75.40
13310;DHT22;6723;48.256;16.402;2023-05-29T07:34:57;21.60;75.20
13310;DHT22;6723;48.256;16.402;2023-05-29T07:37:23;21.70;75.20
13310;DHT22;6723;48.256;16.402;2023-05-29T07:39:48;21.90;75.60
13310;DHT22;6723;48.256;16.402;2023-05-29T07:42:14;22.40;74.70
13310;DHT22;6723;48.256;16.402;2023-05-29T07:44:40;22.00;74.10
13310;DHT22;6723;48.256;16.402;2023-05-29T07:47:11;21.90;73.40
13310;DHT22;6723;48.256;16.402;2023-05-29T07:49:37;21.90;74.10
13310;DHT22;6723;48.256;16.402;2023-05-29T07:52:03;21.90;74.50
13310;DHT22;6723;48.256;16.402;2023-05-29T07:54:33;22.10;74.10
13310;DHT22;6723;48.256;16.402;2023-05-29T07:57:00;22.10;73.30
13310;DHT22;6723;48.256;16.402;2023-05-29T07:59:28;22.70;72.90
13310;DHT22;6723;48.256;16.402;2023-05-29T08:01:54;22.60;72.00
13310;DHT22;6723;48.256;16.402;2023-05-29T08:04:24;23.00;73.30
13310;DHT22;6723;48.256;16.402;2023-05-29T08:06:50;23.00;71.70
13310;DHT22;6723;48.256;16.402;2023-05-29T08:09:16;22.70;70.60
13310;DHT22;6723;48.256;16.402;2023-05-29T08:11:43;22.80;70.80
13310;DHT22;6723;48.256;16.402;2023-05-29T08:14:12;22.80;71.30
13310;DHT22;6723;48.256;16.402;2023-05-29T08:16:38;22.80;70.60
13310;DHT22;6723;48.256;16.402;2023-05-29T08:19:03;23.10;70.50
13310;DHT22;6723;48.256;16.402;2023-05-29T08:21:30;23.20;69.70
13310;DHT22;6723;48.256;16.402;2023-05-29T08:23:58;23.20;69.70
13310;DHT22;6723;48.256;16.402;2023-05-29T08:26:24;23.40;70.30
13310;DHT22;6723;48.256;16.402;2023-05-29T08:28:49;24.30;69.00
13310;DHT22;6723;48.256;16.402;2023-05-29T08:31:16;24.40;68.80
13310;DHT22;6723;48.256;16.402;2023-05-29T08:33:42;24.00;68.50
13310;DHT22;6723;48.256;16.402;2023-05-29T08:36:08;24.30;68.30
13310;DHT22;6723;48.256;16.402;2023-05-29T08:38:35;24.10;68.60
13310;DHT22;6723;48.256;16.402;2023-05-29T08:41:02;24.40;68.70
13310;DHT22;6723;48.256;16.402;2023-05-29T08:43:32;24.30;69.00
13310;DHT22;6723;48.256;16.402;2023-05-29T08:46:02;24.20;69.30
13310;DHT22;6723;48.256;16.402;2023-05-29T08:48:30;24.00;69.10
13310;DHT22;6723;48.256;16.402;2023-05-29T08:50:58;23.90;69.80
13310;DHT22;6723;48.256;16.402;2023-05-29T08:53:25;24.60;70.30
13310;DHT22;6723;48.256;16.402;2023-05-29T08:55:52;24.50;69.50
13310;DHT22;6723;48.256;16.402;2023-05-29T08:58:19;24.30;69.60
13310;DHT22;6723;48.256;16.402;2023-05-29T09:00:49;24.40;69.90
13310;DHT22;6723;48.256;16.402;2023-05-29T09:03:16;25.00;68.80
13310;DHT22;6723;48.256;16.402;2023-05-29T09:05:44;25.10;68.90
13310;DHT22;6723;48.256;16.402;2023-05-29T09:08:10;26.20;68.70
13310;DHT22;6723;48.256;16.402;2023-05-29T09:10:44;26.40;66.30
13310;DHT22;6723;48.256;16.402;2023-05-29T09:13:12;26.70;66.90
13310;DHT22;6723;48.256;16.402;2023-05-29T09:15:40;27.10;65.70
13310;DHT22;6723;48.256;16.402;2023-05-29T09:18:08;26.80;66.10
13310;DHT22;6723;48.256;16.402;2023-05-29T09:20:35;27.30;65.20
13310;DHT22;6723;48.256;16.402;2023-05-29T09:25:30;27.10;64.70
13310;DHT22;6723;48.256;16.402;2023-05-29T09:28:02;27.20;65.30
13310;DHT22;6723;48.256;16.402;2023-05-29T09:30:45;27.60;65.70
13310;DHT22;6723;48.256;16.402;2023-05-29T09:33:15;27.50;64.70
13310;DHT22;6723;48.256;16.402;2023-05-29T09:35:44;27.40;64.00
13310;DHT22;6723;48.256;16.402;2023-05-29T09:38:12;27.90;64.10
13310;DHT22;6723;48.256;16.402;2023-05-29T09:40:39;28.00;63.00
13310;DHT22;6723;48.256;16.402;2023-05-29T09:43:16;28.10;62.30
13310;DHT22;6723;48.256;16.402;2023-05-29T09:45:47;28.50;62.80
13310;DHT22;6723;48.256;16.402;2023-05-29T09:48:14;28.80;61.80
13310;DHT22;6723;48.256;16.402;2023-05-29T09:50:41;28.70;61.10
13310;DHT22;6723;48.256;16.402;2023-05-29T09:53:20;28.90;60.70
13310;DHT22;6723;48.256;16.402;2023-05-29T09:56:00;29.00;58.20
13310;DHT22;6723;48.256;16.402;2023-05-29T09:58:27;28.80;58.50
13310;DHT22;6723;48.256;16.402;2023-05-29T10:00:53;29.00;57.30
13310;DHT22;6723;48.256;16.402;2023-05-29T10:03:20;30.00;55.10
13310;DHT22;6723;48.256;16.402;2023-05-29T10:05:50;30.60;53.50
13310;DHT22;6723;48.256;16.402;2023-05-29T10:08:20;30.60;52.30
13310;DHT22;6723;48.256;16.402;2023-05-29T10:10:49;31.10;52.90
13310;DHT22;6723;48.256;16.402;2023-05-29T10:13:17;31.00;53.10
13310;DHT22;6723;48.256;16.402;2023-05-29T10:15:45;31.20;52.00
13310;DHT22;6723;48.256;16.402;2023-05-29T10:18:32;30.60;52.00
13310;DHT22;6723;48.256;16.402;2023-05-29T10:21:00;31.10;52.10
13310;DHT22;6723;48.256;16.402;2023-05-29T10:23:30;31.20;52.00
13310;DHT22;6723;48.256;16.402;2023-05-29T10:26:01;30.50;52.60
13310;DHT22;6723;48.256;16.402;2023-05-29T10:28:42;30.10;51.50
13310;DHT22;6723;48.256;16.402;2023-05-29T10:31:24;30.00;53.10
13310;DHT22;6723;48.256;16.402;2023-05-29T10:34:18;30.50;53.70
13310;DHT22;6723;48.256;16.402;2023-05-29T10:36:53;30.50;52.00
13310;DHT22;6723;48.256;16.402;2023-05-29T10:39:22;30.30;52.50
13310;DHT22;6723;48.256;16.402;2023-05-29T10:41:48;30.50;52.20
13310;DHT22;6723;48.256;16.402;2023-05-29T10:49:26;30.00;53.00
13310;DHT22;6723;48.256;16.402;2023-05-29T10:51:52;29.90;52.40
13310;DHT22;6723;48.256;16.402;2023-05-29T10:54:23;30.30;53.00
13310;DHT22;6723;48.256;16.402;2023-05-29T10:56:58;30.50;52.00
13310;DHT22;6723;48.256;16.402;2023-05-29T10:59:26;30.70;50.80
13310;DHT22;6723;48.256;16.402;2023-05-29T11:01:54;30.70;50.70
13310;DHT22;6723;48.256;16.402;2023-05-29T11:06:46;30.50;51.00
13310;DHT22;6723;48.256;16.402;2023-05-29T11:09:38;30.70;51.50
13310;DHT22;6723;48.256;16.402;2023-05-29T11:14:56;31.30;50.10
13310;DHT22;6723;48.256;16.402;2023-05-29T11:17:32;31.30;50.30
13310;DHT22;6723;48.256;16.402;2023-05-29T11:20:02;30.70;50.70
13310;DHT22;6723;48.256;16.402;2023-05-29T11:23:03;30.50;50.20
13310;DHT22;6723;48.256;16.402;2023-05-29T11:25:28;30.90;51.20
13310;DHT22;6723;48.256;16.402;2023-05-29T11:27:54;30.40;50.00
13310;DHT22;6723;48.256;16.402;2023-05-29T11:30:22;30.50;49.70
13310;DHT22;6723;48.256;16.402;2023-05-29T11:32:48;30.10;50.80
13310;DHT22;6723;48.256;16.402;2023-05-29T11:35:15;30.60;51.10
13310;DHT22;6723;48.256;16.402;2023-05-29T11:37:43;30.50;50.90
13310;DHT22;6723;48.256;16.402;2023-05-29T11:40:12;30.90;50.50
13310;DHT22;6723;48.256;16.402;2023-05-29T11:42:42;31.10;50.10
13310;DHT22;6723;48.256;16.402;2023-05-29T11:45:12;31.80;50.70
13310;DHT22;6723;48.256;16.402;2023-05-29T11:47:54;31.70;50.10
13310;DHT22;6723;48.256;16.402;2023-05-29T11:50:22;31.40;49.30
13310;DHT22;6723;48.256;16.402;2023-05-29T11:52:48;30.80;49.50
13310;DHT22;6723;48.256;16.402;2023-05-29T11:55:14;30.80;49.70
13310;DHT22;6723;48.256;16.402;2023-05-29T11:57:40;30.60;50.00
13310;DHT22;6723;48.256;16.402;2023-05-29T12:00:07;30.40;50.10
13310;DHT22;6723;48.256;16.402;2023-05-29T12:02:35;30.30;50.30
13310;DHT22;6723;48.256;16.402;2023-05-29T12:05:02;30.90;50.80
13310;DHT22;6723;48.256;16.402;2023-05-29T12:07:28;30.70;49.50
13310;DHT22;6723;48.256;16.402;2023-05-29T12:09:54;30.80;49.30
13310;DHT22;6723;48.256;16.402;2023-05-29T12:12:23;30.30;49.10
13310;DHT22;6723;48.256;16.402;2023-05-29T12:14:52;30.60;49.40
13310;DHT22;6723;48.256;16.402;2023-05-29T12:17:20;30.20;50.40
13310;DHT22;6723;48.256;16.402;2023-05-29T12:19:46;30.50;49.50
13310;DHT22;6723;48.256;16.402;2023-05-29T12:22:12;31.10;49.70
13310;DHT22;6723;48.256;16.402;2023-05-29T12:24:38;31.00;48.80
13310;DHT22;6723;48.256;16.402;2023-05-29T12:27:04;30.80;47.90
13310;DHT22;6723;48.256;16.402;2023-05-29T12:29:33;30.30;46.90
13310;DHT22;6723;48.256;16.402;2023-05-29T12:31:59;30.10;47.50
13310;DHT22;6723;48.256;16.402;2023-05-29T12:34:25;30.20;48.30
13310;DHT22;6723;48.256;16.402;2023-05-29T12:36:51;30.70;48.70
13310;DHT22;6723;48.256;16.402;2023-05-29T12:39:17;30.50;47.70
13310;DHT22;6723;48.256;16.402;2023-05-29T12:41:43;30.90;48.20
13310;DHT22;6723;48.256;16.402;2023-05-29T12:44:09;30.90;48.30
13310;DHT22;6723;48.256;16.402;2023-05-29T12:46:42;30.60;47.60
13310;DHT22;6723;48.256;16.402;2023-05-29T12:49:15;30.40;48.00
13310;DHT22;6723;48.256;16.402;2023-05-29T12:51:43;30.60;48.00
13310;DHT22;6723;48.256;16.402;2023-05-29T12:54:10;30.20;48.00
13310;DHT22;6723;48.256;16.402;2023-05-29T12:56:37;30.60;47.60
13310;DHT22;6723;48.256;16.402;2023-05-29T12:59:06;30.80;46.80
13310;DHT22;6723;48.256;16.402;2023-05-29T13:01:33;30.70;47.20
13310;DHT22;6723;48.256;16.402;2023-05-29T13:03:59;30.50;47.30
13310;DHT22;6723;48.256;16.402;2023-05-29T13:06:39;30.10;47.40
13310;DHT22;6723;48.256;16.402;2023-05-29T13:09:05;30.20;48.00
13310;DHT22;6723;48.256;16.402;2023-05-29T13:11:33;30.20;48.30
13310;DHT22;6723;48.256;16.402;2023-05-29T13:13:59;30.00;47.80
13310;DHT22;6723;48.256;16.402;2023-05-29T13:16:25;30.10;48.20
13310;DHT22;6723;48.256;16.402;2023-05-29T13:18:51;29.80;48.10
13310;DHT22;6723;48.256;16.402;2023-05-29T13:21:19;29.60;48.00
13310;DHT22;6723;48.256;16.402;2023-05-29T13:23:45;30.00;48.50
13310;DHT22;6723;48.256;16.402;2023-05-29T13:26:11;29.70;48.00
13310;DHT22;6723;48.256;16.402;2023-05-29T13:28:37;29.60;48.60
13310;DHT22;6723;48.256;16.402;2023-05-29T13:31:03;29.60;47.50
13310;DHT22;6723;48.256;16.402;2023-05-29T13:33:30;29.80;47.70
13310;DHT22;6723;48.256;16.402;2023-05-29T13:35:56;29.80;46.80
13310;DHT22;6723;48.256;16.402;2023-05-29T13:38:40;29.50;47.40
13310;DHT22;6723;48.256;16.402;2023-05-29T13:41:22;29.50;46.20
13310;DHT22;6723;48.256;16.402;2023-05-29T13:43:51;29.50;50.30
13310;DHT22;6723;48.256;16.402;2023-05-29T13:46:17;29.60;47.10
13310;DHT22;6723;48.256;16.402;2023-05-29T13:48:43;29.60;46.70
13310;DHT22;6723;48.256;16.402;2023-05-29T13:51:09;29.80;45.50
13310;DHT22;6723;48.256;16.402;2023-05-29T13:53:37;29.90;45.50
13310;DHT22;6723;48.256;16.402;2023-05-29T13:56:03;29.90;44.80
13310;DHT22;6723;48.256;16.402;2023-05-29T13:58:29;29.50;44.60
13310;DHT22;6723;48.256;16.402;2023-05-29T14:00:55;29.80;44.60
13310;DHT22;6723;48.256;16.402;2023-05-29T14:03:21;29.80;45.10
13310;DHT22;6723;48.256;16.402;2023-05-29T14:05:54;29.50;45.30
13310;DHT22;6723;48.256;16.402;2023-05-29T14:08:21;29.50;44.80
13310;DHT22;6723;48.256;16.402;2023-05-29T14:10:47;29.20;45.10
13310;DHT22;6723;48.256;16.402;2023-05-29T14:13:12;28.90;45.70
13310;DHT22;6723;48.256;16.402;2023-05-29T14:15:38;28.90;46.00
13310;DHT22;6723;48.256;16.402;2023-05-29T14:18:04;28.70;45.40
13310;DHT22;6723;48.256;16.402;2023-05-29T14:20:30;28.50;45.20
13310;DHT22;6723;48.256;16.402;2023-05-29T14:22:56;28.40;44.50
13310;DHT22;6723;48.256;16.402;2023-05-29T14:25:22;28.20;44.80
13310;DHT22;6723;48.256;16.402;2023-05-29T14:27:47;28.30;45.80
13310;DHT22;6723;48.256;16.402;2023-05-29T14:30:13;28.60;46.20
13310;DHT22;6723;48.256;16.402;2023-05-29T14:32:39;28.70;46.10
13310;DHT22;6723;48.256;16.402;2023-05-29T14:35:07;28.60;46.70
13310;DHT22;6723;48.256;16.402;2023-05-29T14:37:33;28.50;46.60
13310;DHT22;6723;48.256;16.402;2023-05-29T14:39:59;28.50;47.60
13310;DHT22;6723;48.256;16.402;2023-05-29T14:42:24;28.30;46.90
13310;DHT22;6723;48.256;16.402;2023-05-29T14:44:50;28.40;46.70
13310;DHT22;6723;48.256;16.402;2023-05-29T14:47:16;28.30;47.30
13310;DHT22;6723;48.256;16.402;2023-05-29T14:49:44;28.30;47.30
13310;DHT22;6723;48.256;16.402;2023-05-29T14:52:09;28.30;46.70
13310;DHT22;6723;48.256;16.402;2023-05-29T14:54:35;28.10;46.60
13310;DHT22;6723;48.256;16.402;2023-05-29T14:57:16;28.10;47.00
13310;DHT22;6723;48.256;16.402;2023-05-29T14:59:41;28.10;45.70
13310;DHT22;6723;48.256;16.402;2023-05-29T15:02:07;28.10;45.00
13310;DHT22;6723;48.256;16.402;2023-05-29T15:04:35;28.00;45.70
13310;DHT22;6723;48.256;16.402;2023-05-29T15:07:02;28.10;46.50
13310;DHT22;6723;48.256;16.402;2023-05-29T15:09:28;28.10;46.60
13310;DHT22;6723;48.256;16.402;2023-05-29T15:11:54;28.00;46.30
13310;DHT22;6723;48.256;16.402;2023-05-29T15:14:20;28.00;46.90
13310;DHT22;6723;48.256;16.402;2023-05-29T15:16:45;27.90;47.60
13310;DHT22;6723;48.256;16.402;2023-05-29T15:19:11;27.70;47.50
13310;DHT22;6723;48.256;16.402;2023-05-29T15:21:37;27.70;47.80
13310;DHT22;6723;48.256;16.402;2023-05-29T15:24:03;27.70;46.90
13310;DHT22;6723;48.256;16.402;2023-05-29T15:26:29;27.60;47.90
13310;DHT22;6723;48.256;16.402;2023-05-29T15:28:55;27.60;48.10
13310;DHT22;6723;48.256;16.402;2023-05-29T15:31:21;27.50;48.60
13310;DHT22;6723;48.256;16.402;2023-05-29T15:34:03;27.40;49.40
13310;DHT22;6723;48.256;16.402;2023-05-29T15:36:32;27.20;49.40
13310;DHT22;6723;48.256;16.402;2023-05-29T15:38:58;27.00;49.30
13310;DHT22;6723;48.256;16.402;2023-05-29T15:41:24;27.00;49.60
13310;DHT22;6723;48.256;16.402;2023-05-29T15:43:58;27.00;49.80
13310;DHT22;6723;48.256;16.402;2023-05-29T15:46:26;27.10;49.80
13310;DHT22;6723;48.256;16.402;2023-05-29T15:48:52;27.10;50.10
13310;DHT22;6723;48.256;16.402;2023-05-29T15:51:18;27.00;49.60
13310;DHT22;6723;48.256;16.402;2023-05-29T15:53:50;27.00;50.00